Time;durP1;ratioP1;P1;durP2;ratioP2;P2;SDS_P1;SDS_P2;PMS_P1;PMS_P2;Temp;Humidity;BMP_temperature;BMP_pressure;BME280_temperature;BME280_humidity;BME280_pressure;Samples;Min_cycle;Max_cycle;Signal;HPM_P1;HPM_P2
2023/08/05 00:01:12;;;;;;;8.95;4.25;;;14.30;99.90;;;;;;5060430;28;20232;-75
2023/08/05 00:03:43;;;;;;;6.45;4.00;;;14.30;99.90;;;;;;5064222;28;20331;-75
2023/08/05 00:06:15;;;;;;;6.72;4.22;;;14.40;99.90;;;;;;5061725;28;20193;-75
2023/08/05 00:08:46;;;;;;;7.80;4.45;;;14.50;99.90;;;;;;5062526;28;20197;-75
2023/08/05 00:11:17;;;;;;;9.43;4.10;;;14.50;99.90;;;;;;5071300;28;20192;-75
2023/08/05 00:13:47;;;;;;;8.40;4.43;;;14.60;99.90;;;;;;5062490;28;20200;-74
2023/08/05 00:16:18;;;;;;;6.03;4.35;;;14.70;99.90;;;;;;5070910;28;20204;-75
2023/08/05 00:18:49;;;;;;;8.07;4.15;;;14.80;99.90;;;;;;5056872;28;20220;-75
2023/08/05 00:21:22;;;;;;;7.68;3.85;;;14.90;99.90;;;;;;5063060;28;20594;-75
2023/08/05 00:23:52;;;;;;;7.45;3.97;;;14.90;99.90;;;;;;5066358;28;20322;-75
2023/08/05 00:26:23;;;;;;;8.70;3.97;;;15.00;99.90;;;;;;5052765;28;20197;-74
2023/08/05 00:28:54;;;;;;;7.10;4.45;;;15.10;99.90;;;;;;5056065;28;20555;-74
2023/08/05 00:31:25;;;;;;;9.38;4.57;;;15.20;99.90;;;;;;5055179;28;20220;-75
2023/08/05 00:33:56;;;;;;;12.27;4.85;;;15.30;99.90;;;;;;5064618;28;20193;-75
2023/08/05 00:36:29;;;;;;;8.38;5.05;;;15.30;99.90;;;;;;5065841;28;20189;-74
2023/08/05 00:38:59;;;;;;;11.48;4.55;;;15.40;99.90;;;;;;5069126;28;20209;-75
2023/08/05 00:41:30;;;;;;;7.63;4.45;;;15.50;99.90;;;;;;5066508;28;20225;-75
2023/08/05 00:44:01;;;;;;;8.75;4.50;;;15.50;99.90;;;;;;5054210;28;20186;-75
2023/08/05 00:46:32;;;;;;;9.50;4.97;;;15.60;99.90;;;;;;5063009;28;20201;-75
2023/08/05 00:49:03;;;;;;;10.77;5.07;;;15.70;99.90;;;;;;5053179;28;20204;-75
2023/08/05 00:51:35;;;;;;;11.27;5.38;;;15.80;99.90;;;;;;5055352;28;20657;-75
2023/08/05 00:54:06;;;;;;;9.80;5.10;;;15.90;99.90;;;;;;5052331;28;20573;-75
2023/08/05 00:56:38;;;;;;;8.43;4.50;;;16.00;99.90;;;;;;5052291;28;20225;-75
2023/08/05 00:59:09;;;;;;;9.00;4.88;;;16.20;99.90;;;;;;5063848;28;20193;-75
2023/08/05 01:01:39;;;;;;;8.18;4.82;;;16.30;99.90;;;;;;5052715;28;20572;-75
2023/08/05 01:04:10;;;;;;;11.13;5.63;;;16.40;99.90;;;;;;5061504;28;20696;-76
2023/08/05 01:06:44;;;;;;;9.93;5.43;;;16.50;99.90;;;;;;5068038;28;20189;-76
2023/08/05 01:09:15;;;;;;;7.68;4.72;;;16.50;99.90;;;;;;5061880;28;20197;-75
2023/08/05 01:11:46;;;;;;;7.82;5.20;;;16.60;99.90;;;;;;5057676;28;20210;-76
2023/08/05 01:14:17;;;;;;;9.43;5.57;;;16.60;99.90;;;;;;5052491;28;20276;-75
2023/08/05 01:16:48;;;;;;;9.05;5.32;;;16.70;99.90;;;;;;5053767;28;20204;-76
2023/08/05 01:19:23;;;;;;;8.55;4.85;;;16.70;99.90;;;;;;5053897;28;20726;-76
2023/08/05 01:22:09;;;;;;;11.15;5.20;;;16.70;99.90;;;;;;5061571;28;20213;-76
2023/08/05 01:24:48;;;;;;;7.43;4.82;;;16.80;99.90;;;;;;5049947;28;20284;-75
2023/08/05 01:27:21;;;;;;;12.80;5.10;;;16.80;99.90;;;;;;5049931;28;20193;-76
2023/08/05 01:29:52;;;;;;;7.88;4.53;;;16.80;99.90;;;;;;5049552;28;20308;-76
2023/08/05 01:32:22;;;;;;;7.90;4.18;;;16.80;99.90;;;;;;5056505;28;20204;-76
2023/08/05 01:34:54;;;;;;;8.05;4.13;;;16.90;99.90;;;;;;5051986;28;20208;-76
2023/08/05 01:37:24;;;;;;;9.43;4.10;;;16.80;99.90;;;;;;5052664;28;20193;-76
2023/08/05 01:39:55;;;;;;;6.63;3.80;;;16.90;99.90;;;;;;5056332;28;20212;-75
2023/08/05 01:42:28;;;;;;;7.68;3.70;;;17.00;99.90;;;;;;5054261;28;20581;-76
2023/08/05 01:44:59;;;;;;;5.68;3.40;;;16.90;99.90;;;;;;5065118;28;20285;-75
2023/08/05 01:47:29;;;;;;;5.95;3.78;;;16.80;99.90;;;;;;5057319;28;20193;-76
2023/08/05 01:50:00;;;;;;;5.63;3.40;;;16.80;99.90;;;;;;5061848;28;20214;-76
2023/08/05 01:52:31;;;;;;;5.68;3.17;;;16.80;99.90;;;;;;5066734;28;20195;-76
2023/08/05 01:55:02;;;;;;;7.90;3.15;;;16.80;99.90;;;;;;5056191;28;20190;-76
2023/08/05 01:57:34;;;;;;;4.68;3.08;;;16.90;99.90;;;;;;5061466;28;20302;-75
2023/08/05 02:00:05;;;;;;;6.38;2.90;;;16.90;99.90;;;;;;5058626;28;20223;-76
2023/08/05 02:02:36;;;;;;;5.32;3.05;;;17.00;99.90;;;;;;5064291;28;20264;-76
2023/08/05 02:05:07;;;;;;;4.65;2.78;;;17.00;99.90;;;;;;5056363;28;20201;-75
2023/08/05 02:07:38;;;;;;;5.07;3.40;;;16.90;99.90;;;;;;5057710;28;20197;-75
2023/08/05 02:10:09;;;;;;;4.50;2.90;;;16.90;99.90;;;;;;5053412;28;20327;-75
2023/08/05 02:12:42;;;;;;;4.32;2.90;;;16.90;99.90;;;;;;5066415;28;20223;-75
2023/08/05 02:15:13;;;;;;;4.65;3.40;;;16.90;99.90;;;;;;5064726;28;20197;-75
2023/08/05 02:17:44;;;;;;;5.53;3.30;;;16.90;99.90;;;;;;5073149;28;20204;-75
2023/08/05 02:20:15;;;;;;;4.95;3.15;;;16.90;99.90;;;;;;5064225;28;20702;-76
2023/08/05 02:22:45;;;;;;;11.00;6.30;;;16.90;99.90;;;;;;5070283;28;20256;-75
2023/08/05 02:25:16;;;;;;;5.90;3.92;;;16.90;99.90;;;;;;5067400;28;20254;-76
2023/08/05 02:27:49;;;;;;;6.25;3.47;;;16.90;99.90;;;;;;5064527;28;20568;-76
2023/08/05 02:30:20;;;;;;;7.40;4.55;;;16.90;99.90;;;;;;5061229;28;20216;-75
2023/08/05 02:32:51;;;;;;;10.65;4.80;;;17.00;99.90;;;;;;5075013;28;20280;-76
2023/08/05 02:35:21;;;;;;;5.25;3.58;;;16.90;99.90;;;;;;5074764;28;20199;-76
2023/08/05 02:37:52;;;;;;;7.60;3.05;;;16.90;99.90;;;;;;5067970;28;20201;-76
2023/08/05 02:40:23;;;;;;;5.18;3.35;;;16.90;99.90;;;;;;5068311;28;20213;-76
2023/08/05 02:42:56;;;;;;;5.05;3.47;;;16.90;99.90;;;;;;5074899;28;20193;-76
2023/08/05 02:45:27;;;;;;;4.53;3.08;;;16.90;99.90;;;;;;5074879;28;20196;-76
2023/08/05 02:47:58;;;;;;;4.43;3.03;;;16.90;99.90;;;;;;5073841;28;20292;-76
2023/08/05 02:50:28;;;;;;;6.18;3.00;;;16.90;99.90;;;;;;5063143;28;20226;-76
2023/08/05 02:52:59;;;;;;;4.55;2.90;;;16.90;99.90;;;;;;5082303;28;20207;-76
2023/08/05 02:55:30;;;;;;;5.65;3.05;;;16.80;99.90;;;;;;5094989;28;20189;-76
2023/08/05 02:58:03;;;;;;;5.88;3.30;;;16.80;99.90;;;;;;5074254;28;20201;-76
2023/08/05 03:00:34;;;;;;;7.18;3.50;;;16.80;99.90;;;;;;5057465;28;20209;-76
2023/08/05 03:03:05;;;;;;;6.72;3.45;;;16.80;99.90;;;;;;5054268;28;20229;-76
2023/08/05 03:05:36;;;;;;;5.80;3.33;;;16.80;99.90;;;;;;5052571;28;20197;-76
2023/08/05 03:08:06;;;;;;;5.47;3.10;;;16.90;99.90;;;;;;5055228;28;20193;-76
2023/08/05 03:10:37;;;;;;;5.55;3.15;;;16.90;99.90;;;;;;5054319;28;20288;-75
2023/08/05 03:13:10;;;;;;;7.20;3.35;;;16.80;99.90;;;;;;5053695;28;20215;-76
2023/08/05 03:15:41;;;;;;;5.05;3.10;;;16.90;99.90;;;;;;5062907;28;20197;-76
2023/08/05 03:18:12;;;;;;;6.32;3.17;;;16.90;99.90;;;;;;5063562;28;20201;-76
2023/08/05 03:20:43;;;;;;;5.90;3.10;;;16.90;99.90;;;;;;5062442;28;20235;-75
2023/08/05 03:23:13;;;;;;;7.78;3.38;;;17.00;99.90;;;;;;5069394;28;20204;-75
2023/08/05 03:25:44;;;;;;;6.32;3.45;;;17.10;99.90;;;;;;5053021;28;20194;-76
2023/08/05 03:28:17;;;;;;;7.10;3.50;;;17.10;99.90;;;;;;5054031;28;20521;-76
2023/08/05 03:30:48;;;;;;;6.15;3.47;;;17.10;99.90;;;;;;5052276;28;20201;-76
2023/08/05 03:33:18;;;;;;;7.47;3.35;;;17.10;99.90;;;;;;5053252;28;20722;-75
2023/08/05 03:35:49;;;;;;;6.57;3.42;;;17.10;99.90;;;;;;5053567;28;20194;-75
2023/08/05 03:38:20;;;;;;;6.00;3.35;;;17.10;99.90;;;;;;5053569;28;20621;-75
2023/08/05 03:40:51;;;;;;;7.32;4.00;;;17.20;99.90;;;;;;5053485;28;20213;-75
2023/08/05 03:43:24;;;;;;;7.63;3.72;;;17.30;99.90;;;;;;5053867;28;20233;-75
2023/08/05 03:45:55;;;;;;;5.75;3.42;;;17.30;99.90;;;;;;5058500;28;20201;-76
2023/08/05 03:48:26;;;;;;;6.90;3.60;;;17.20;99.90;;;;;;5066661;28;20224;-76
2023/08/05 03:50:57;;;;;;;4.88;3.30;;;17.20;99.90;;;;;;5062108;28;20212;-76
2023/08/05 03:53:27;;;;;;;6.18;3.25;;;17.20;99.90;;;;;;5053414;28;20193;-76
2023/08/05 03:55:58;;;;;;;7.20;4.00;;;17.20;99.90;;;;;;5057249;28;20672;-76
2023/08/05 03:58:31;;;;;;;7.75;3.67;;;17.10;99.90;;;;;;5052923;28;20188;-76
2023/08/05 04:01:02;;;;;;;5.57;3.55;;;17.20;99.90;;;;;;5057398;28;20721;-76
2023/08/05 04:03:33;;;;;;;5.05;3.25;;;17.20;99.90;;;;;;5058712;28;20583;-76
2023/08/05 04:06:05;;;;;;;6.90;3.20;;;17.10;99.90;;;;;;5051208;28;20212;-76
2023/08/05 04:08:36;;;;;;;6.30;2.95;;;17.20;99.90;;;;;;5052724;28;20198;-76
2023/08/05 04:11:08;;;;;;;7.05;3.35;;;17.10;99.90;;;;;;5055470;28;20201;-75
2023/08/05 04:13:42;;;;;;;5.55;3.38;;;17.10;99.90;;;;;;5053870;28;20254;-76
2023/08/05 04:16:14;;;;;;;5.00;3.10;;;17.10;99.90;;;;;;5051917;28;20224;-75
2023/08/05 04:18:46;;;;;;;7.38;3.67;;;17.10;99.90;;;;;;5053610;28;20586;-75
2023/08/05 04:21:17;;;;;;;6.50;3.55;;;17.10;99.90;;;;;;5051267;28;20684;-76
2023/08/05 04:23:48;;;;;;;6.05;3.28;;;17.00;99.90;;;;;;5051921;28;20197;-76
2023/08/05 04:26:19;;;;;;;7.10;3.40;;;17.00;99.90;;;;;;5061631;28;20246;-76
2023/08/05 04:28:52;;;;;;;7.03;3.58;;;17.00;99.90;;;;;;5071009;28;20185;-77
2023/08/05 04:31:23;;;;;;;8.27;3.92;;;17.00;99.90;;;;;;5055091;28;20609;-77
2023/08/05 04:33:53;;;;;;;8.27;3.60;;;17.00;99.90;;;;;;5059441;28;20244;-77
2023/08/05 04:36:24;;;;;;;5.63;3.40;;;17.00;99.90;;;;;;5053843;28;20185;-77
2023/08/05 04:38:56;;;;;;;8.18;3.75;;;17.00;99.90;;;;;;5052935;28;20646;-77
2023/08/05 04:41:27;;;;;;;6.07;3.72;;;16.90;99.90;;;;;;5058771;28;20209;-77
2023/08/05 04:44:00;;;;;;;7.32;3.28;;;17.00;99.90;;;;;;5065700;28;20186;-77
2023/08/05 04:46:30;;;;;;;7.45;3.80;;;16.90;99.90;;;;;;5052769;28;20193;-77
2023/08/05 04:49:01;;;;;;;7.90;3.65;;;16.90;99.90;;;;;;5053279;28;20661;-77
2023/08/05 04:51:32;;;;;;;7.22;3.90;;;16.90;99.90;;;;;;5059313;28;20640;-77
2023/08/05 04:54:02;;;;;;;10.25;4.53;;;16.90;99.90;;;;;;5072773;28;20197;-77
2023/08/05 04:56:34;;;;;;;10.80;4.10;;;16.90;99.90;;;;;;5072749;28;20197;-77
2023/08/05 04:59:07;;;;;;;9.18;4.47;;;16.80;99.90;;;;;;5072669;28;20199;-77
2023/08/05 05:01:38;;;;;;;5.97;3.70;;;16.80;99.90;;;;;;5064760;28;20296;-77
2023/08/05 05:04:08;;;;;;;8.73;4.10;;;16.80;99.90;;;;;;5052460;28;20229;-77
2023/08/05 05:06:39;;;;;;;7.32;4.20;;;16.80;99.90;;;;;;5052532;28;20197;-76
2023/08/05 05:09:10;;;;;;;6.20;3.80;;;16.80;99.90;;;;;;5054177;28;20192;-76
2023/08/05 05:11:41;;;;;;;11.85;4.40;;;16.80;99.90;;;;;;5072273;28;20193;-76
2023/08/05 05:14:14;;;;;;;7.78;3.72;;;16.80;99.90;;;;;;5072462;28;20199;-76
2023/08/05 05:16:45;;;;;;;12.77;4.10;;;16.70;99.90;;;;;;5055666;28;20189;-75
2023/08/05 05:19:16;;;;;;;9.07;4.32;;;16.70;99.90;;;;;;5051768;28;20726;-76
2023/08/05 05:21:46;;;;;;;6.53;4.18;;;16.70;99.90;;;;;;5062598;28;20223;-76
2023/08/05 05:24:17;;;;;;;7.53;4.15;;;16.70;99.90;;;;;;5072676;28;20189;-76
2023/08/05 05:26:48;;;;;;;6.32;4.20;;;16.70;99.90;;;;;;5072553;28;20185;-76
2023/08/05 05:29:20;;;;;;;8.63;4.25;;;16.60;99.90;;;;;;5072574;28;20189;-76
2023/08/05 05:31:51;;;;;;;7.07;4.20;;;16.60;99.90;;;;;;5063205;28;20201;-76
2023/08/05 05:34:22;;;;;;;8.93;4.05;;;16.60;99.90;;;;;;5056524;28;20200;-76
2023/08/05 05:36:53;;;;;;;10.85;4.85;;;16.50;99.90;;;;;;5056570;28;20198;-76
2023/08/05 05:39:23;;;;;;;9.63;5.20;;;16.50;99.90;;;;;;5056319;28;20194;-76
2023/08/05 05:41:54;;;;;;;7.82;5.30;;;16.50;99.90;;;;;;5057182;28;20210;-75
2023/08/05 05:44:29;;;;;;;10.90;5.75;;;16.40;99.90;;;;;;5057077;28;20213;-75
2023/08/05 05:46:59;;;;;;;9.55;5.53;;;16.50;99.90;;;;;;5055910;28;20537;-75
2023/08/05 05:49:31;;;;;;;10.25;5.38;;;16.50;99.90;;;;;;5056071;28;20601;-77
2023/08/05 05:52:02;;;;;;;10.95;5.40;;;16.50;99.90;;;;;;5070371;28;20209;-75
2023/08/05 05:54:32;;;;;;;9.85;6.28;;;16.50;99.90;;;;;;5075990;28;20196;-76
2023/08/05 05:57:03;;;;;;;9.23;5.55;;;16.60;99.90;;;;;;5075973;28;20290;-76
2023/08/05 05:59:36;;;;;;;9.63;5.00;;;16.60;99.90;;;;;;5075723;28;20203;-76
2023/08/05 06:02:06;;;;;;;11.05;5.75;;;16.70;99.90;;;;;;5060287;28;20342;-77
2023/08/05 06:04:38;;;;;;;10.93;5.45;;;16.70;99.90;;;;;;5055771;28;20186;-76
2023/08/05 06:07:09;;;;;;;12.52;5.75;;;16.70;99.90;;;;;;5055777;28;20284;-77
2023/08/05 06:09:40;;;;;;;10.20;6.20;;;16.60;99.90;;;;;;5069707;28;20185;-76
2023/08/05 06:12:11;;;;;;;12.07;6.32;;;16.60;99.90;;;;;;5074880;28;20193;-76
2023/08/05 06:14:44;;;;;;;8.40;5.82;;;16.60;99.90;;;;;;5074371;28;20663;-77
2023/08/05 06:17:14;;;;;;;10.32;5.93;;;16.60;99.90;;;;;;5075521;28;20566;-76
2023/08/05 06:19:45;;;;;;;11.70;6.07;;;16.60;99.90;;;;;;5074715;28;20216;-76
2023/08/05 06:22:16;;;;;;;11.02;5.43;;;16.60;99.90;;;;;;5075410;28;20224;-77
2023/08/05 06:24:47;;;;;;;8.65;5.28;;;16.50;99.90;;;;;;5075193;28;20195;-76
2023/08/05 06:27:17;;;;;;;9.27;5.88;;;16.50;99.90;;;;;;5075051;28;20216;-75
2023/08/05 06:29:50;;;;;;;7.78;5.40;;;16.50;99.90;;;;;;5074870;28;20197;-77
2023/08/05 06:32:21;;;;;;;7.35;5.35;;;16.50;99.90;;;;;;5074142;28;20196;-77
2023/08/05 06:34:52;;;;;;;8.98;6.07;;;16.40;99.90;;;;;;5072170;28;20200;-77
2023/08/05 06:37:23;;;;;;;8.65;5.78;;;16.40;99.90;;;;;;5058381;28;20193;-76
2023/08/05 06:39:53;;;;;;;8.93;5.50;;;16.40;99.90;;;;;;5054662;28;20251;-76
2023/08/05 06:42:25;;;;;;;7.68;5.00;;;16.40;99.90;;;;;;5054110;28;20217;-76
2023/08/05 06:44:58;;;;;;;10.48;5.72;;;16.40;99.90;;;;;;5064339;28;20264;-76
2023/08/05 06:47:31;;;;;;;11.18;5.50;;;16.40;99.90;;;;;;5066273;28;20208;-76
2023/08/05 06:50:02;;;;;;;7.88;5.25;;;16.30;99.90;;;;;;5072602;28;20189;-77
2023/08/05 06:52:33;;;;;;;8.50;5.25;;;16.30;99.90;;;;;;5074989;28;20193;-76
2023/08/05 06:55:04;;;;;;;9.98;6.07;;;16.30;99.90;;;;;;5055016;28;20676;-76
2023/08/05 06:57:35;;;;;;;11.30;5.97;;;16.30;99.90;;;;;;5054583;28;20657;-76
2023/08/05 07:00:09;;;;;;;11.10;6.63;;;16.20;99.90;;;;;;5054893;28;20190;-76
2023/08/05 07:02:40;;;;;;;9.25;6.10;;;16.20;99.90;;;;;;5058256;28;20422;-76
2023/08/05 07:05:11;;;;;;;8.68;5.72;;;16.10;99.90;;;;;;5054905;28;20190;-76
2023/08/05 07:07:42;;;;;;;9.90;5.80;;;16.10;99.90;;;;;;5055815;28;20707;-76
2023/08/05 07:10:13;;;;;;;9.25;5.70;;;16.10;99.90;;;;;;5054344;28;20185;-76
2023/08/05 07:12:43;;;;;;;9.30;5.78;;;16.10;99.90;;;;;;5060051;28;20195;-76
2023/08/05 07:15:16;;;;;;;8.10;5.50;;;16.10;99.90;;;;;;5073038;28;20189;-77
2023/08/05 07:17:47;;;;;;;8.43;5.50;;;16.00;99.90;;;;;;5074354;28;20189;-77
2023/08/05 07:20:18;;;;;;;28.80;21.55;;;16.00;99.90;;;;;;5071100;28;20224;-77
2023/08/05 07:22:49;;;;;;;14.02;9.55;;;16.00;99.90;;;;;;5054283;28;20221;-77
2023/08/05 07:25:19;;;;;;;14.50;9.13;;;15.90;99.90;;;;;;5054040;28;20190;-77
2023/08/05 07:27:50;;;;;;;11.65;7.50;;;15.90;99.90;;;;;;5056064;28;20681;-77
2023/08/05 07:30:23;;;;;;;13.85;8.55;;;15.80;99.90;;;;;;5057079;28;20201;-77
2023/08/05 07:32:53;;;;;;;11.25;7.18;;;15.80;99.90;;;;;;5062070;28;20193;-77
2023/08/05 07:35:24;;;;;;;8.95;5.88;;;15.70;99.90;;;;;;5072768;28;20195;-76
2023/08/05 07:37:55;;;;;;;8.88;6.03;;;15.70;99.90;;;;;;5071911;28;20656;-77
2023/08/05 07:40:26;;;;;;;9.93;5.68;;;15.70;99.90;;;;;;5067245;28;20201;-76
2023/08/05 07:42:58;;;;;;;7.82;5.68;;;15.70;99.90;;;;;;5064446;28;20213;-77
2023/08/05 07:45:32;;;;;;;8.35;4.95;;;15.60;99.90;;;;;;5072059;28;20193;-77
2023/08/05 07:48:06;;;;;;;6.53;4.88;;;15.70;99.90;;;;;;5068542;28;20203;-76
2023/08/05 07:50:37;;;;;;;6.45;4.60;;;15.60;99.90;;;;;;5072424;28;20272;-77
2023/08/05 07:53:09;;;;;;;9.63;5.15;;;15.70;99.90;;;;;;5065537;28;20657;-76
2023/08/05 07:55:42;;;;;;;8.10;4.88;;;15.60;99.90;;;;;;5061735;28;20561;-77
2023/08/05 07:58:12;;;;;;;9.35;5.57;;;15.70;99.90;;;;;;5063038;28;20676;-76
2023/08/05 08:00:45;;;;;;;8.52;5.30;;;15.70;99.90;;;;;;5066964;28;20593;-76
2023/08/05 08:03:16;;;;;;;7.03;4.95;;;15.60;99.90;;;;;;5067311;28;20245;-77
2023/08/05 08:05:47;;;;;;;8.93;5.10;;;15.60;99.90;;;;;;5054246;28;20715;-77
2023/08/05 08:08:18;;;;;;;7.70;5.50;;;15.60;99.90;;;;;;5053201;28;20201;-77
2023/08/05 08:10:49;;;;;;;7.15;5.00;;;15.50;99.90;;;;;;5052580;28;20562;-77
2023/08/05 08:13:20;;;;;;;6.97;4.63;;;15.50;99.90;;;;;;5052868;28;20235;-77
2023/08/05 08:15:52;;;;;;;9.68;5.10;;;15.40;99.90;;;;;;5053786;28;20203;-77
2023/08/05 08:18:23;;;;;;;8.23;4.90;;;15.40;99.90;;;;;;5054399;28;20222;-77
2023/08/05 08:20:54;;;;;;;6.93;4.78;;;15.40;99.90;;;;;;5054505;28;20274;-77
2023/08/05 08:23:25;;;;;;;9.10;5.50;;;15.30;99.90;;;;;;5053027;28;20719;-77
2023/08/05 08:25:58;;;;;;;8.27;5.45;;;15.30;99.90;;;;;;5063195;28;20208;-77
2023/08/05 08:28:29;;;;;;;7.88;5.82;;;15.30;99.90;;;;;;5065998;28;20193;-76
2023/08/05 08:31:02;;;;;;;9.85;5.97;;;15.30;99.90;;;;;;5071672;28;20181;-77
2023/08/05 08:33:33;;;;;;;10.82;5.93;;;15.30;99.90;;;;;;5073378;28;20185;-76
2023/08/05 08:36:03;;;;;;;8.00;5.57;;;15.30;99.90;;;;;;5057779;28;20202;-77
2023/08/05 08:38:34;;;;;;;9.30;6.45;;;15.20;99.90;;;;;;5057720;28;20251;-77
2023/08/05 08:41:05;;;;;;;9.77;6.75;;;15.20;99.90;;;;;;5072141;28;20204;-77
2023/08/05 08:43:36;;;;;;;11.48;6.63;;;15.20;99.90;;;;;;5064735;28;20216;-77
2023/08/05 08:46:10;;;;;;;10.60;6.60;;;15.20;99.90;;;;;;5070564;28;20557;-76
2023/08/05 08:48:43;;;;;;;9.82;6.50;;;15.20;99.90;;;;;;5072007;28;20227;-77
2023/08/05 08:51:15;;;;;;;9.65;6.70;;;15.20;99.90;;;;;;5060921;28;20203;-77
2023/08/05 08:53:48;;;;;;;10.25;6.78;;;15.20;99.90;;;;;;5072891;28;20216;-77
2023/08/05 08:56:19;;;;;;;10.82;7.03;;;15.20;99.90;;;;;;5071263;28;20200;-77
2023/08/05 08:58:49;;;;;;;10.20;6.75;;;15.20;99.90;;;;;;5061905;28;20673;-77
2023/08/05 09:01:23;;;;;;;10.80;6.22;;;15.20;99.90;;;;;;5067740;28;20508;-77
2023/08/05 09:03:55;;;;;;;9.35;6.55;;;15.20;99.90;;;;;;5069247;28;20241;-77
2023/08/05 09:06:26;;;;;;;8.95;6.18;;;15.20;99.90;;;;;;5069576;28;20579;-77
2023/08/05 09:08:58;;;;;;;8.38;6.05;;;15.20;99.90;;;;;;5069507;28;20197;-77
2023/08/05 09:11:28;;;;;;;8.35;5.53;;;15.20;99.90;;;;;;5071228;28;20200;-77
2023/08/05 09:13:59;;;;;;;8.02;5.05;;;15.20;99.90;;;;;;5074740;28;20203;-77
2023/08/05 09:16:32;;;;;;;7.65;4.90;;;15.20;99.90;;;;;;5073723;28;20197;-76
2023/08/05 09:19:03;;;;;;;7.75;4.88;;;15.20;99.90;;;;;;5068613;28;20684;-77
2023/08/05 09:21:33;;;;;;;8.05;5.05;;;15.20;99.90;;;;;;5060722;28;20201;-76
2023/08/05 09:24:04;;;;;;;8.57;4.93;;;15.20;99.90;;;;;;5059155;28;20236;-76
2023/08/05 09:26:37;;;;;;;7.38;4.68;;;15.20;99.90;;;;;;5072468;28;20668;-76
2023/08/05 09:29:08;;;;;;;6.60;4.50;;;15.20;99.90;;;;;;5076293;28;20200;-77
2023/08/05 09:31:41;;;;;;;8.63;4.70;;;15.20;99.90;;;;;;5074290;28;20201;-77
2023/08/05 09:34:13;;;;;;;8.57;4.90;;;15.20;99.90;;;;;;5075948;28;20680;-76
2023/08/05 09:36:43;;;;;;;6.38;4.28;;;15.20;99.90;;;;;;5064598;28;20312;-77
2023/08/05 09:39:16;;;;;;;5.47;4.20;;;15.20;99.90;;;;;;5064295;28;20211;-77
2023/08/05 09:41:53;;;;;;;6.10;4.10;;;15.20;99.90;;;;;;5076155;28;20193;-77
2023/08/05 09:44:24;;;;;;;6.70;4.10;;;15.20;99.90;;;;;;5063849;28;20224;-76
2023/08/05 09:47:01;;;;;;;6.15;3.97;;;15.20;99.90;;;;;;5070681;28;20193;-76
2023/08/05 09:49:33;;;;;;;8.35;4.05;;;15.20;99.90;;;;;;5075781;28;20253;-76
2023/08/05 09:52:04;;;;;;;4.90;3.88;;;15.20;99.90;;;;;;5073836;28;20631;-77
2023/08/05 09:54:36;;;;;;;8.13;5.40;;;15.20;99.90;;;;;;5069779;28;20570;-76
2023/08/05 09:57:09;;;;;;;9.95;5.50;;;15.20;99.90;;;;;;5074547;28;20256;-77
2023/08/05 09:59:41;;;;;;;8.93;6.03;;;15.20;99.90;;;;;;5071127;28;20197;-76
2023/08/05 10:02:15;;;;;;;11.27;6.72;;;15.20;99.90;;;;;;5064389;28;20263;-77
2023/08/05 10:04:46;;;;;;;11.40;6.65;;;15.30;99.90;;;;;;5071118;28;20208;-76
2023/08/05 10:07:18;;;;;;;9.60;6.50;;;15.30;99.90;;;;;;5066186;28;20201;-76
2023/08/05 10:09:50;;;;;;;10.25;6.60;;;15.30;99.90;;;;;;5070920;28;20197;-76
2023/08/05 10:12:24;;;;;;;10.27;6.07;;;15.30;99.90;;;;;;5073904;28;20243;-77
2023/08/05 10:14:56;;;;;;;11.40;6.85;;;15.30;99.90;;;;;;5068524;28;20201;-77
2023/08/05 10:17:30;;;;;;;10.77;6.32;;;15.40;99.90;;;;;;5066987;28;20208;-76
2023/08/05 10:20:02;;;;;;;11.80;6.88;;;15.40;99.90;;;;;;5063374;28;20280;-77
2023/08/05 10:22:34;;;;;;;10.50;5.85;;;15.40;99.90;;;;;;5071392;28;20283;-77
2023/08/05 10:25:05;;;;;;;9.43;5.63;;;15.40;99.90;;;;;;5062822;28;20192;-76
2023/08/05 10:27:41;;;;;;;9.70;4.88;;;15.50;99.90;;;;;;5061002;28;20193;-77
2023/08/05 10:30:14;;;;;;;11.70;4.05;;;15.50;99.90;;;;;;5065604;28;20232;-77
2023/08/05 10:32:58;;;;;;;10.15;3.72;;;15.60;99.90;;;;;;5070004;28;20276;-76
2023/08/05 10:35:33;;;;;;;10.20;3.42;;;15.70;99.90;;;;;;5075130;28;20730;-77
2023/08/05 10:38:16;;;;;;;8.70;3.60;;;15.70;99.90;;;;;;5073747;28;20302;-76
2023/08/05 10:40:51;;;;;;;8.85;3.40;;;15.70;99.90;;;;;;5063051;28;20198;-76
2023/08/05 10:43:36;;;;;;;9.80;4.03;;;15.60;99.90;;;;;;5069286;28;20216;-76
2023/08/05 10:46:14;;;;;;;7.95;3.65;;;15.70;99.90;;;;;;5062814;28;20213;-76
2023/08/05 10:48:47;;;;;;;9.23;2.60;;;15.70;99.90;;;;;;5063735;28;20219;-76
2023/08/05 10:51:20;;;;;;;7.93;3.00;;;15.60;99.90;;;;;;5053903;28;20236;-76
2023/08/05 10:54:02;;;;;;;13.52;3.40;;;15.60;99.90;;;;;;5064050;28;20204;-77
2023/08/05 10:56:33;;;;;;;11.93;2.70;;;15.60;99.90;;;;;;5064732;28;20200;-76
2023/08/05 10:59:05;;;;;;;10.02;2.92;;;15.70;99.90;;;;;;5061176;28;20679;-76
2023/08/05 11:01:56;;;;;;;10.30;2.40;;;15.70;99.90;;;;;;5061733;28;20189;-76
2023/08/05 11:04:32;;;;;;;11.45;2.50;;;15.70;99.90;;;;;;5060027;28;20695;-76
2023/08/05 11:07:04;;;;;;;11.00;2.60;;;15.70;99.90;;;;;;5074136;28;20280;-77
2023/08/05 11:09:37;;;;;;;15.23;2.20;;;15.60;99.90;;;;;;5073406;28;20223;-76
2023/08/05 11:12:10;;;;;;;10.52;2.40;;;15.60;99.90;;;;;;5056635;28;20662;-77
2023/08/05 11:14:41;;;;;;;7.90;1.95;;;15.50;99.90;;;;;;5061074;28;20200;-77
2023/08/05 11:17:11;;;;;;;11.75;2.25;;;15.50;99.90;;;;;;5071311;28;20199;-77
2023/08/05 11:19:58;;;;;;;7.50;2.30;;;15.60;99.90;;;;;;5068805;28;20199;-77
2023/08/05 11:22:30;;;;;;;9.57;2.22;;;15.60;99.90;;;;;;5072750;28;20586;-77
2023/08/05 11:25:02;;;;;;;12.40;2.72;;;15.50;99.90;;;;;;5061612;28;20221;-78
2023/08/05 11:27:36;;;;;;;12.70;3.60;;;15.40;99.90;;;;;;5070592;28;20246;-78
2023/08/05 11:30:16;;;;;;;14.07;3.63;;;15.40;99.90;;;;;;5073738;28;20197;-77
2023/08/05 11:32:55;;;;;;;12.35;2.90;;;15.40;99.90;;;;;;5070765;28;20205;-76
2023/08/05 11:35:28;;;;;;;13.95;3.10;;;15.30;99.90;;;;;;5066873;28;20196;-76
2023/08/05 11:37:59;;;;;;;10.25;2.80;;;15.40;99.90;;;;;;5060018;28;20200;-75
2023/08/05 11:40:30;;;;;;;13.50;2.78;;;15.40;99.90;;;;;;5063871;28;20661;-76
2023/08/05 11:43:01;;;;;;;14.55;2.95;;;15.40;99.90;;;;;;5073831;28;20193;-75
2023/08/05 11:45:32;;;;;;;17.95;3.50;;;15.30;99.90;;;;;;5071059;28;20220;-75
2023/08/05 11:48:03;;;;;;;14.05;2.80;;;15.30;99.90;;;;;;5071585;28;20679;-75
2023/08/05 11:50:39;;;;;;;22.92;4.88;;;15.30;99.90;;;;;;5059935;28;20196;-75
2023/08/05 11:53:12;;;;;;;13.05;2.67;;;15.30;99.90;;;;;;5066300;28;20674;-76
2023/08/05 11:55:44;;;;;;;13.43;3.00;;;15.30;99.90;;;;;;5069158;28;20228;-76
2023/08/05 11:58:15;;;;;;;11.95;2.90;;;15.30;99.90;;;;;;5072454;28;20243;-76
2023/08/05 12:00:51;;;;;;;13.52;3.08;;;15.30;99.90;;;;;;5068397;28;20200;-76
2023/08/05 12:03:22;;;;;;;16.08;3.25;;;15.30;99.90;;;;;;5073184;28;20608;-76
2023/08/05 12:06:04;;;;;;;15.40;3.22;;;15.30;99.90;;;;;;5067224;28;20197;-75
2023/08/05 12:08:42;;;;;;;10.10;2.80;;;15.20;99.90;;;;;;5066252;28;20746;-75
2023/08/05 12:11:13;;;;;;;18.52;3.58;;;15.20;99.90;;;;;;5069710;28;20228;-76
2023/08/05 12:13:46;;;;;;;11.82;3.10;;;15.20;99.90;;;;;;5058987;28;20197;-76
2023/08/05 12:16:18;;;;;;;10.23;2.83;;;15.30;99.90;;;;;;5057601;28;20292;-77
2023/08/05 12:18:49;;;;;;;15.15;3.00;;;15.20;99.90;;;;;;5056758;28;20196;-78
2023/08/05 12:21:22;;;;;;;17.98;3.05;;;15.20;99.90;;;;;;5053720;28;20202;-76
2023/08/05 12:23:53;;;;;;;12.38;2.70;;;15.30;99.90;;;;;;5052869;28;20249;-76
2023/08/05 12:26:30;;;;;;;10.40;2.65;;;15.20;99.90;;;;;;5054641;28;20196;-76
2023/08/05 12:29:00;;;;;;;17.20;3.22;;;15.20;99.90;;;;;;5068087;28;20188;-76
2023/08/05 12:31:32;;;;;;;9.25;2.40;;;15.20;99.90;;;;;;5064931;28;20567;-77
2023/08/05 12:34:03;;;;;;;16.83;3.03;;;15.20;99.90;;;;;;5059209;28;20201;-76
2023/08/05 12:36:35;;;;;;;19.25;3.10;;;15.20;99.90;;;;;;5073119;28;20185;-77
2023/08/05 12:39:07;;;;;;;17.25;3.00;;;15.10;99.90;;;;;;5063424;28;20186;-76
2023/08/05 12:41:37;;;;;;;9.32;2.53;;;15.10;99.90;;;;;;5056493;28;20280;-77
2023/08/05 12:44:09;;;;;;;12.73;2.90;;;15.10;99.90;;;;;;5061341;28;20212;-77
2023/08/05 12:46:40;;;;;;;12.63;2.60;;;15.10;99.90;;;;;;5074049;28;20232;-77
2023/08/05 12:49:10;;;;;;;13.52;3.00;;;15.10;99.90;;;;;;5058714;28;20192;-77
2023/08/05 12:51:43;;;;;;;18.60;3.00;;;15.10;99.90;;;;;;5052820;28;20194;-76
2023/08/05 12:54:14;;;;;;;11.07;3.10;;;15.10;99.90;;;;;;5052922;28;20658;-77
2023/08/05 12:56:44;;;;;;;10.10;2.58;;;15.10;99.90;;;;;;5056197;28;20194;-76
2023/08/05 12:59:15;;;;;;;15.32;2.92;;;15.10;99.90;;;;;;5068002;28;20555;-77
2023/08/05 13:01:46;;;;;;;10.27;2.47;;;15.10;99.90;;;;;;5060463;28;20204;-77
2023/08/05 13:04:17;;;;;;;11.05;2.40;;;15.10;99.90;;;;;;5061227;28;20746;-77
2023/08/05 13:06:49;;;;;;;10.95;2.58;;;15.10;99.90;;;;;;5065999;28;20205;-77